Time;durP1;ratioP1;P1;durP2;ratioP2;P2;SDS_P1;SDS_P2;PMS_P1;PMS_P2;Temp;Humidity;BMP_temperature;BMP_pressure;BME280_temperature;BME280_humidity;BME280_pressure;Samples;Min_cycle;Max_cycle;Signal;HPM_P1;HPM_P2
2022/01/01 00:00:09;;;;;;;36.97;20.97;;;;;;;7.71;100.00;94924.31;5090991;28;20705;-63
2022/01/01 00:02:35;;;;;;;30.37;19.67;;;;;;;7.43;100.00;94914.50;5092819;28;20192;-60
2022/01/01 00:05:01;;;;;;;30.90;18.93;;;;;;;7.44;100.00;94916.09;5092130;28;20187;-61
2022/01/01 00:07:26;;;;;;;38.07;22.67;;;;;;;7.47;100.00;94916.69;5092620;28;20257;-62
2022/01/01 00:09:52;;;;;;;37.40;23.57;;;;;;;7.43;100.00;94930.44;5092244;28;20230;-63
2022/01/01 00:12:18;;;;;;;44.13;27.30;;;;;;;7.45;100.00;94917.72;5092426;28;20231;-61
2022/01/01 00:14:44;;;;;;;45.97;27.67;;;;;;;7.57;100.00;94929.53;5092355;28;20188;-63
2022/01/01 00:17:10;;;;;;;44.43;26.43;;;;;;;7.67;100.00;94937.28;5092348;28;20653;-62
2022/01/01 00:19:36;;;;;;;45.87;26.90;;;;;;;7.54;100.00;94929.72;5090470;28;20196;-63
2022/01/01 00:22:02;;;;;;;42.97;25.63;;;;;;;7.40;100.00;94918.03;5092274;28;20232;-62
2022/01/01 00:24:28;;;;;;;40.97;24.37;;;;;;;7.38;100.00;94916.50;5092066;28;20649;-63
2022/01/01 00:26:53;;;;;;;34.07;22.17;;;;;;;7.52;100.00;94916.38;5091804;28;20196;-60
2022/01/01 00:29:19;;;;;;;38.37;21.97;;;;;;;7.47;100.00;94910.84;5091629;28;20642;-60
2022/01/01 00:31:45;;;;;;;33.53;19.27;;;;;;;7.34;100.00;94902.47;5036531;22;20731;-60
2022/01/01 00:34:11;;;;;;;32.33;20.33;;;;;;;7.57;100.00;94917.66;4988664;28;20195;-64
2022/01/01 00:36:38;;;;;;;35.10;19.43;;;;;;;7.40;100.00;94907.91;4989547;28;20207;-62
2022/01/01 00:39:04;;;;;;;34.53;19.93;;;;;;;7.47;100.00;94913.38;4989356;28;20206;-61
2022/01/01 00:41:30;;;;;;;31.17;18.67;;;;;;;7.45;100.00;94905.06;4989390;28;20211;-63
2022/01/01 00:43:55;;;;;;;30.77;18.90;;;;;;;7.35;100.00;94904.88;4989278;28;20567;-59
2022/01/01 00:46:20;;;;;;;30.40;18.80;;;;;;;7.41;100.00;94904.47;4989648;28;20207;-63
2022/01/01 00:48:46;;;;;;;30.03;17.20;;;;;;;7.53;100.00;94910.41;4989392;28;20175;-62
2022/01/01 00:51:11;;;;;;;27.27;17.43;;;;;;;7.43;100.00;94911.97;4989329;28;20348;-59
2022/01/01 00:53:37;;;;;;;25.80;14.83;;;;;;;7.47;100.00;94898.97;4989316;28;20183;-62
2022/01/01 00:56:03;;;;;;;28.37;18.10;;;;;;;7.53;100.00;94906.16;4989132;28;20222;-63
2022/01/01 00:58:28;;;;;;;26.77;17.43;;;;;;;7.49;100.00;94883.72;4989305;28;20179;-62
2022/01/01 01:00:54;;;;;;;27.23;14.47;;;;;;;7.49;100.00;94883.72;4989315;28;20235;-62
2022/01/01 01:03:19;;;;;;;25.27;15.60;;;;;;;7.38;100.00;94873.53;4988853;28;20649;-63
2022/01/01 01:05:46;;;;;;;25.20;13.97;;;;;;;7.42;100.00;94872.41;4987826;28;20207;-62
2022/01/01 01:08:16;;;;;;;22.83;14.03;;;;;;;7.23;100.00;94867.00;4987603;28;20203;-61
2022/01/01 01:10:47;;;;;;;24.00;14.33;;;;;;;7.42;100.00;94872.41;4989139;28;20207;-62
2022/01/01 01:13:15;;;;;;;24.50;13.80;;;;;;;7.25;100.00;94868.50;4987699;28;20175;-62
2022/01/01 01:15:42;;;;;;;22.43;14.37;;;;;;;7.31;100.00;94864.75;4988803;28;20204;-64
2022/01/01 01:18:08;;;;;;;21.03;13.57;;;;;;;7.31;100.00;94860.47;4988905;28;20209;-60
2022/01/01 01:20:33;;;;;;;24.40;14.37;;;;;;;7.17;100.00;94858.09;4988580;28;20630;-63
2022/01/01 01:22:59;;;;;;;24.43;14.10;;;;;;;7.18;100.00;94869.03;4988742;28;20195;-62
2022/01/01 01:25:29;;;;;;;23.23;14.70;;;;;;;7.24;100.00;94866.88;4988667;28;20179;-63
2022/01/01 01:27:54;;;;;;;23.07;13.97;;;;;;;7.43;100.00;94876.56;4988612;28;20669;-59
2022/01/01 01:30:22;;;;;;;27.37;14.43;;;;;;;7.27;100.00;94868.41;4988544;28;20179;-60
2022/01/01 01:32:47;;;;;;;19.77;12.70;;;;;;;7.28;100.00;94878.41;4988669;28;20200;-62
2022/01/01 01:35:13;;;;;;;24.67;14.40;;;;;;;7.29;100.00;94887.59;4988727;28;20638;-60
2022/01/01 01:37:39;;;;;;;27.37;15.70;;;;;;;6.94;100.00;94886.66;4989310;28;20188;-61
2022/01/01 01:40:06;;;;;;;33.23;19.37;;;;;;;7.11;100.00;94883.00;4988616;28;20706;-63
2022/01/01 01:42:33;;;;;;;32.97;20.73;;;;;;;7.08;100.00;94886.53;4988457;28;20631;-62
2022/01/01 01:45:01;;;;;;;37.40;20.67;;;;;;;6.86;100.00;94895.66;4989471;28;20263;-61
2022/01/01 01:47:29;;;;;;;32.20;20.73;;;;;;;7.06;100.00;94897.66;4990344;28;20210;-63
2022/01/01 01:49:56;;;;;;;35.87;21.10;;;;;;;7.14;100.00;94892.88;4990508;28;20188;-62
2022/01/01 01:52:23;;;;;;;36.87;20.13;;;;;;;7.21;100.00;94887.31;4992296;28;20647;-59
2022/01/01 01:54:49;;;;;;;37.23;20.90;;;;;;;7.31;100.00;94900.16;4991689;28;20589;-61
2022/01/01 01:57:15;;;;;;;39.13;22.07;;;;;;;7.22;100.00;94894.00;4992218;28;20196;-63
2022/01/01 01:59:41;;;;;;;34.37;20.73;;;;;;;7.02;100.00;94876.03;4990295;28;20272;-63
2022/01/01 02:02:07;;;;;;;36.50;21.03;;;;;;;6.96;100.00;94887.34;4991954;28;20275;-59
2022/01/01 02:04:33;;;;;;;34.70;20.87;;;;;;;6.96;100.00;94874.72;4991774;28;20193;-63
2022/01/01 02:06:58;;;;;;;37.53;23.53;;;;;;;6.86;100.00;94880.47;4991950;28;20294;-63
2022/01/01 02:09:25;;;;;;;44.00;23.87;;;;;;;6.79;100.00;94875.84;4991784;28;20187;-62
2022/01/01 02:11:52;;;;;;;37.43;22.33;;;;;;;6.70;100.00;94861.31;4990389;28;20210;-61
2022/01/01 02:14:36;;;;;;;40.50;22.50;;;;;;;6.70;100.00;94863.84;4991554;28;20192;-62
2022/01/01 02:19:28;;;;;;;39.20;22.60;;;;;;;6.85;100.00;94864.50;4991650;28;20210;-62
2022/01/01 02:21:57;;;;;;;36.60;21.23;;;;;;;6.69;100.00;94862.22;4990235;28;20208;-61
2022/01/01 02:24:23;;;;;;;31.30;19.40;;;;;;;6.71;100.00;94855.34;4990070;28;20215;-62
2022/01/01 02:26:48;;;;;;;35.70;21.07;;;;;;;6.58;100.00;94851.19;4991607;28;20292;-62
2022/01/01 02:29:14;;;;;;;33.20;19.73;;;;;;;6.61;100.00;94871.19;4991456;28;20191;-62
2022/01/01 02:31:40;;;;;;;37.20;21.27;;;;;;;6.64;100.00;94855.84;4989692;28;20226;-62
2022/01/01 02:34:07;;;;;;;36.80;20.30;;;;;;;6.69;100.00;94861.38;4991135;28;20631;-63
2022/01/01 02:36:36;;;;;;;32.87;18.60;;;;;;;6.75;100.00;94854.22;4990238;28;20219;-61
2022/01/01 02:39:19;;;;;;;38.00;19.40;;;;;;;6.95;100.00;94852.09;4991321;28;20681;-62
2022/01/01 02:41:48;;;;;;;27.53;16.47;;;;;;;6.90;100.00;94852.38;4989891;28;20294;-59
2022/01/01 02:44:14;;;;;;;32.63;18.73;;;;;;;6.87;100.00;94849.28;4991222;28;20186;-63
2022/01/01 02:46:39;;;;;;;32.73;17.50;;;;;;;6.95;100.00;94844.50;4989928;28;20219;-62
2022/01/01 02:49:05;;;;;;;26.87;16.83;;;;;;;6.99;100.00;94844.19;4990980;28;20222;-62
2022/01/01 02:51:30;;;;;;;30.33;17.27;;;;;;;6.98;100.00;94849.34;4991246;28;20200;-62
2022/01/01 02:53:56;;;;;;;27.87;16.77;;;;;;;7.08;100.00;94862.97;4989707;28;20190;-62
2022/01/01 02:56:23;;;;;;;29.83;16.30;;;;;;;7.16;100.00;94853.97;4988725;28;20211;-62
2022/01/01 02:58:48;;;;;;;29.80;17.07;;;;;;;7.24;100.00;94851.72;4990739;28;20186;-62
2022/01/01 03:01:14;;;;;;;26.43;16.67;;;;;;;7.13;100.00;94848.31;4990927;28;20207;-62
2022/01/01 03:03:39;;;;;;;27.10;16.37;;;;;;;6.86;100.00;94850.16;4990935;28;20241;-62
2022/01/01 03:06:05;;;;;;;30.00;16.80;;;;;;;6.76;100.00;94843.22;4990937;28;20214;-63
2022/01/01 03:08:30;;;;;;;29.00;15.57;;;;;;;6.92;100.00;94834.59;4990835;28;20567;-62
2022/01/01 03:10:56;;;;;;;30.00;16.50;;;;;;;6.92;100.00;94839.66;4989458;28;20219;-62
2022/01/01 03:13:21;;;;;;;29.50;17.13;;;;;;;6.65;100.00;94822.91;4990624;28;20191;-62
2022/01/01 03:15:47;;;;;;;28.40;16.77;;;;;;;6.66;100.00;94806.03;4989295;28;20212;-60
2022/01/01 03:18:13;;;;;;;28.27;15.97;;;;;;;6.70;100.00;94817.56;4990583;28;20179;-63
2022/01/01 03:20:39;;;;;;;26.40;15.37;;;;;;;6.84;100.00;94819.97;4989068;28;20329;-61
2022/01/01 03:23:05;;;;;;;22.97;14.10;;;;;;;6.83;100.00;94820.06;4990479;28;20258;-60
2022/01/01 03:25:30;;;;;;;22.07;14.07;;;;;;;6.72;100.00;94819.06;4990426;28;20186;-60
2022/01/01 03:27:56;;;;;;;23.93;13.67;;;;;;;6.80;100.00;94821.06;4990531;28;20194;-63
2022/01/01 03:30:21;;;;;;;20.30;13.43;;;;;;;6.67;100.00;94821.09;4990164;28;20402;-62
2022/01/01 03:32:47;;;;;;;19.43;10.33;;;;;;;6.82;100.00;94815.91;4990302;28;20183;-62
2022/01/01 03:35:14;;;;;;;17.70;10.87;;;;;;;6.72;100.00;94818.25;4989179;28;20703;-59
2022/01/01 03:37:39;;;;;;;19.97;10.97;;;;;;;6.65;100.00;94817.84;4990956;28;20184;-63
2022/01/01 03:40:05;;;;;;;16.63;10.10;;;;;;;6.68;100.00;94809.28;4990185;28;20707;-61
2022/01/01 03:42:31;;;;;;;17.67;10.67;;;;;;;6.63;100.00;94821.38;4990851;28;20211;-62
2022/01/01 03:44:56;;;;;;;16.07;10.27;;;;;;;6.71;100.00;94816.63;4990296;28;20270;-60
2022/01/01 03:47:22;;;;;;;15.63;9.57;;;;;;;6.62;100.00;94827.34;4990545;28;20207;-60
2022/01/01 03:49:49;;;;;;;15.73;8.63;;;;;;;6.91;100.00;94818.63;4990156;28;20561;-62
2022/01/01 03:52:15;;;;;;;17.07;10.40;;;;;;;6.75;100.00;94834.00;4990354;28;20209;-59
2022/01/01 03:54:41;;;;;;;14.37;9.17;;;;;;;6.90;100.00;94839.75;4989950;28;20194;-62
2022/01/01 03:57:06;;;;;;;15.70;9.70;;;;;;;6.78;100.00;94836.34;4990311;28;20569;-62
2022/01/01 03:59:32;;;;;;;13.40;8.40;;;;;;;6.87;100.00;94822.25;4989821;28;20206;-60
2022/01/01 04:01:57;;;;;;;15.70;9.00;;;;;;;6.71;100.00;94807.34;4990207;28;20284;-61
2022/01/01 04:04:25;;;;;;;16.37;9.53;;;;;;;6.39;100.00;94791.00;4988465;28;20272;-60
2022/01/01 04:06:51;;;;;;;18.47;10.93;;;;;;;6.19;100.00;94819.28;4989737;28;20263;-59
2022/01/01 04:09:17;;;;;;;18.57;11.00;;;;;;;6.53;100.00;94797.66;4989659;28;20197;-59
2022/01/01 04:11:43;;;;;;;16.70;9.33;;;;;;;6.44;100.00;94788.19;4989938;28;20205;-62
2022/01/01 04:14:15;;;;;;;16.37;10.60;;;;;;;6.42;100.00;94783.22;4990177;28;20202;-60
2022/01/01 04:16:42;;;;;;;16.30;9.93;;;;;;;6.42;100.00;94795.84;4989952;28;20210;-62
2022/01/01 04:19:08;;;;;;;19.93;9.77;;;;;;;6.43;100.00;94799.19;4989704;28;20287;-62
2022/01/01 04:21:34;;;;;;;17.60;9.87;;;;;;;6.58;100.00;94788.88;4989808;28;20210;-62
2022/01/01 04:23:59;;;;;;;18.43;10.93;;;;;;;6.61;100.00;94786.13;4989608;28;20195;-61
2022/01/01 04:26:25;;;;;;;16.93;11.23;;;;;;;6.68;100.00;94782.31;4989663;28;20226;-60
2022/01/01 04:28:51;;;;;;;16.77;10.83;;;;;;;6.66;100.00;94768.97;4989777;28;20202;-62
2022/01/01 04:31:17;;;;;;;19.10;11.13;;;;;;;6.58;100.00;94781.31;4989048;28;20221;-62
2022/01/01 04:33:43;;;;;;;19.47;11.80;;;;;;;6.54;100.00;94787.47;4988807;28;20189;-62
2022/01/01 04:36:10;;;;;;;16.73;10.97;;;;;;;6.57;100.00;94784.72;4988743;28;20690;-61
2022/01/01 04:41:05;;;;;;;18.30;10.53;;;;;;;6.58;100.00;94763.63;4988812;28;20222;-62
2022/01/01 04:43:31;;;;;;;21.37;10.37;;;;;;;6.53;100.00;94759.78;4988718;28;20262;-63
2022/01/01 04:45:56;;;;;;;20.57;11.13;;;;;;;6.10;100.00;94749.19;4988657;28;20620;-61
2022/01/01 04:48:22;;;;;;;19.53;11.63;;;;;;;6.37;100.00;94762.53;4988641;28;20231;-59
2022/01/01 04:50:48;;;;;;;19.93;10.83;;;;;;;6.36;100.00;94765.16;4988660;28;20217;-62
2022/01/01 04:53:17;;;;;;;20.57;11.40;;;;;;;6.39;100.00;94764.94;4988565;28;20174;-61
2022/01/01 04:55:43;;;;;;;19.63;11.53;;;;;;;6.41;100.00;94761.41;4988358;28;20293;-62
2022/01/01 04:58:08;;;;;;;24.37;11.57;;;;;;;6.46;100.00;94761.94;4988687;28;20214;-63
2022/01/01 05:00:34;;;;;;;18.80;11.97;;;;;;;6.59;100.00;94766.94;4988252;28;20218;-62
2022/01/01 05:02:59;;;;;;;19.33;11.20;;;;;;;6.73;100.00;94760.06;4988588;28;20584;-59
2022/01/01 05:05:25;;;;;;;21.67;11.43;;;;;;;6.75;100.00;94765.81;4988172;28;20174;-61
2022/01/01 05:07:50;;;;;;;19.03;11.00;;;;;;;6.77;100.00;94765.69;4987053;28;20183;-61
2022/01/01 05:10:16;;;;;;;18.07;10.53;;;;;;;6.76;100.00;94775.00;4988007;28;20175;-58
2022/01/01 05:12:42;;;;;;;18.80;11.50;;;;;;;6.89;100.00;94784.28;4988537;28;20236;-62
2022/01/01 05:15:08;;;;;;;18.77;11.47;;;;;;;6.93;100.00;94791.53;4988161;28;20182;-62
2022/01/01 05:17:34;;;;;;;22.17;11.57;;;;;;;6.84;100.00;94799.75;4988470;28;20213;-61
2022/01/01 05:19:59;;;;;;;19.37;11.57;;;;;;;6.96;100.00;94811.53;4988964;28;20203;-62
2022/01/01 05:22:24;;;;;;;21.37;11.60;;;;;;;7.12;100.00;94814.63;4991452;28;20214;-62
2022/01/01 05:24:50;;;;;;;18.30;11.03;;;;;;;7.03;100.00;94812.72;4973686;28;20621;-62
2022/01/01 05:27:16;;;;;;;18.93;11.20;;;;;;;6.66;100.00;94774.03;4989849;28;20573;-62
2022/01/01 05:29:41;;;;;;;17.07;10.17;;;;;;;6.88;100.00;94812.97;4991098;28;20186;-62
2022/01/01 05:32:07;;;;;;;16.47;10.23;;;;;;;6.67;100.00;94813.50;4719679;28;7857818;-62
2022/01/01 05:34:33;;;;;;;17.30;10.87;;;;;;;6.70;100.00;94815.84;4992312;28;20264;-61
2022/01/01 05:36:58;;;;;;;20.13;10.90;;;;;;;6.70;100.00;94820.06;4990833;28;20297;-59
2022/01/01 05:39:24;;;;;;;17.60;10.73;;;;;;;6.72;100.00;94825.84;4992098;28;20218;-62
2022/01/01 05:41:54;;;;;;;15.43;9.93;;;;;;;6.70;100.00;94836.06;4992379;28;20661;-62
2022/01/01 05:44:20;;;;;;;21.33;11.33;;;;;;;6.81;100.00;94832.00;4991961;28;20226;-62
2022/01/01 05:46:53;;;;;;;14.37;9.53;;;;;;;6.79;100.00;94830.38;4992243;28;20238;-59
2022/01/01 05:49:19;;;;;;;16.63;10.80;;;;;;;6.79;100.00;94825.31;4992112;28;20184;-63
2022/01/01 05:51:51;;;;;;;14.63;9.57;;;;;;;6.77;100.00;94821.28;4991013;28;20240;-61
2022/01/01 05:54:16;;;;;;;16.00;10.57;;;;;;;6.99;100.00;94830.75;4992428;28;20194;-62
2022/01/01 05:56:42;;;;;;;20.57;10.70;;;;;;;6.69;100.00;94815.91;4990759;28;20630;-63
2022/01/01 05:59:07;;;;;;;16.87;10.17;;;;;;;6.65;100.00;94812.81;4991716;28;20211;-62
2022/01/01 06:01:33;;;;;;;17.97;11.03;;;;;;;6.66;100.00;94829.59;4991937;28;20680;-62
2022/01/01 06:03:58;;;;;;;21.33;11.00;;;;;;;6.54;100.00;94816.97;4992114;28;20277;-62
2022/01/01 06:06:24;;;;;;;20.30;11.37;;;;;;;6.52;100.00;94809.50;4991972;28;20348;-62
2022/01/01 06:08:49;;;;;;;16.07;11.00;;;;;;;6.65;100.00;94817.84;4992069;28;20563;-63
2022/01/01 06:11:14;;;;;;;18.87;11.20;;;;;;;6.43;100.00;94814.31;4990422;28;20199;-62
2022/01/01 06:13:40;;;;;;;18.47;11.47;;;;;;;6.46;100.00;94809.09;4991689;28;20270;-62
2022/01/01 06:16:05;;;;;;;19.30;10.90;;;;;;;6.47;100.00;94808.97;4991734;28;20678;-63
2022/01/01 06:18:31;;;;;;;18.27;10.47;;;;;;;6.50;100.00;94801.22;4991614;28;20192;-63
2022/01/01 06:20:57;;;;;;;16.30;10.07;;;;;;;6.50;100.00;94813.84;4991482;28;20241;-61
2022/01/01 06:23:22;;;;;;;17.63;11.73;;;;;;;6.55;100.00;94816.84;4991412;28;20198;-61
2022/01/01 06:25:48;;;;;;;17.43;10.27;;;;;;;6.68;100.00;94815.13;4991204;28;20200;-63
2022/01/01 06:28:13;;;;;;;19.10;11.40;;;;;;;6.91;100.00;94815.31;4991328;28;20183;-59
2022/01/01 06:30:39;;;;;;;18.73;10.97;;;;;;;6.75;100.00;94816.31;4991110;28;20203;-62
2022/01/01 06:33:13;;;;;;;17.63;10.07;;;;;;;6.74;100.00;94812.19;4990387;28;20183;-62
2022/01/01 06:35:40;;;;;;;15.03;10.60;;;;;;;6.87;100.00;94813.91;4991399;28;20275;-63
2022/01/01 06:38:05;;;;;;;18.97;9.90;;;;;;;6.79;100.00;94820.25;4991138;28;20187;-63
2022/01/01 06:40:31;;;;;;;16.50;10.50;;;;;;;6.91;100.00;94826.19;4991332;28;20282;-62
2022/01/01 06:42:56;;;;;;;17.70;10.80;;;;;;;6.92;100.00;94834.59;4991493;28;20605;-62
2022/01/01 06:45:22;;;;;;;16.10;10.23;;;;;;;7.07;100.00;94844.47;4989605;28;20576;-63
2022/01/01 06:47:47;;;;;;;15.37;9.20;;;;;;;7.10;100.00;94844.28;4989797;28;20191;-61
2022/01/01 06:50:13;;;;;;;17.87;11.00;;;;;;;7.16;100.00;94850.63;4989755;28;20645;-62
2022/01/01 06:52:45;;;;;;;14.97;9.90;;;;;;;7.25;100.00;94842.41;4991588;28;20672;-63
2022/01/01 06:55:13;;;;;;;14.47;9.90;;;;;;;7.36;100.00;94850.88;4990959;28;20176;-63
2022/01/01 06:57:40;;;;;;;19.60;10.63;;;;;;;7.59;100.00;94861.94;4991408;28;20194;-61
2022/01/01 07:00:07;;;;;;;16.30;9.87;;;;;;;7.67;100.00;94862.22;4990907;28;20214;-60
2022/01/01 07:02:46;;;;;;;16.13;10.70;;;;;;;7.84;100.00;94866.88;4991121;28;20207;-61
2022/01/01 07:05:13;;;;;;;18.13;10.33;;;;;;;7.78;100.00;94841.22;4991053;28;20164;-63
2022/01/01 07:07:39;;;;;;;15.77;9.53;;;;;;;7.89;100.00;94852.19;4991434;28;20194;-61
2022/01/01 07:10:11;;;;;;;15.33;9.67;;;;;;;7.93;100.00;94850.22;4989448;28;20282;-62
2022/01/01 07:12:38;;;;;;;16.40;9.70;;;;;;;7.89;100.00;94849.66;4991382;28;20677;-62
2022/01/01 07:15:05;;;;;;;14.67;8.93;;;;;;;7.98;100.00;94856.56;4990763;28;20262;-59
2022/01/01 07:17:31;;;;;;;17.53;9.83;;;;;;;8.05;100.00;94857.75;4991066;28;20686;-63
2022/01/01 07:19:56;;;;;;;15.07;9.43;;;;;;;7.95;100.00;94864.41;4990593;28;20748;-63
2022/01/01 07:22:22;;;;;;;14.53;9.37;;;;;;;8.22;100.00;94882.66;4991098;28;20676;-62
2022/01/01 07:24:49;;;;;;;13.80;9.63;;;;;;;8.20;100.00;94866.78;4990691;28;20187;-62
2022/01/01 07:27:15;;;;;;;18.07;10.50;;;;;;;8.01;100.00;94863.16;4990979;28;20581;-61
2022/01/01 07:29:41;;;;;;;14.17;9.00;;;;;;;8.15;100.00;94866.31;4989060;28;20184;-61
2022/01/01 07:32:07;;;;;;;13.67;10.17;;;;;;;8.27;100.00;94883.19;4990062;28;20658;-63
2022/01/01 07:34:33;;;;;;;16.30;9.77;;;;;;;8.38;100.00;94879.88;4990402;28;20192;-62
2022/01/01 07:36:58;;;;;;;12.60;9.17;;;;;;;8.57;100.00;94867.47;4990811;28;20210;-63
2022/01/01 07:39:24;;;;;;;15.43;10.27;;;;;;;8.61;100.00;94878.19;4990463;28;20652;-62
2022/01/01 07:41:49;;;;;;;15.97;10.03;;;;;;;8.86;100.00;94888.16;4988888;28;20212;-61
2022/01/01 07:44:15;;;;;;;17.03;10.37;;;;;;;8.79;100.00;94889.50;4989872;28;20577;-63
2022/01/01 07:46:40;;;;;;;17.00;11.50;;;;;;;8.93;100.00;94887.56;4990363;28;20237;-61
2022/01/01 07:49:06;;;;;;;17.40;11.30;;;;;;;8.98;100.00;94897.38;4990106;28;20188;-62
2022/01/01 07:51:32;;;;;;;16.37;11.50;;;;;;;9.12;100.00;94905.56;4990046;28;20348;-62
2022/01/01 07:53:58;;;;;;;17.27;11.40;;;;;;;9.22;100.00;94905.69;4972797;28;20210;-63
2022/01/01 07:56:23;;;;;;;21.90;12.33;;;;;;;9.54;100.00;94909.13;4990219;28;20203;-62
2022/01/01 07:58:49;;;;;;;17.93;11.63;;;;;;;9.69;100.00;94902.06;4990057;28;20184;-62
2022/01/01 08:01:14;;;;;;;17.90;11.87;;;;;;;10.02;100.00;94915.47;4990132;28;20743;-59
2022/01/01 08:03:40;;;;;;;19.17;11.87;;;;;;;9.83;100.00;94895.00;4990038;28;20252;-62
2022/01/01 08:06:05;;;;;;;18.37;12.20;;;;;;;9.67;100.00;94886.97;4990330;28;20218;-59
2022/01/01 08:08:31;;;;;;;19.23;12.87;;;;;;;9.88;100.00;94885.28;4989938;28;20180;-64
2022/01/01 08:10:58;;;;;;;22.20;12.63;;;;;;;9.96;100.00;94888.03;4990214;28;20212;-63
2022/01/01 08:13:25;;;;;;;19.37;11.83;;;;;;;10.22;100.00;94887.75;4989836;28;20405;-62
2022/01/01 08:15:52;;;;;;;16.87;11.67;;;;;;;10.56;100.00;94907.78;4989621;28;20360;-63
2022/01/01 08:18:18;;;;;;;18.40;11.43;;;;;;;10.84;100.00;94917.34;4989733;28;20218;-62
2022/01/01 08:20:44;;;;;;;15.90;10.30;;;;;;;11.19;100.00;94916.19;4988108;28;20220;-61
2022/01/01 08:23:09;;;;;;;12.80;8.73;;;;;;;11.33;100.00;94924.25;4989768;28;20180;-62
2022/01/01 08:25:35;;;;;;;8.00;5.53;;;;;;;11.11;100.00;94911.72;4989595;28;20579;-62
2022/01/01 08:28:00;;;;;;;6.43;4.43;;;;;;;11.13;100.00;94932.75;4989554;28;20191;-59
2022/01/01 08:30:26;;;;;;;6.23;4.10;;;;;;;11.14;100.00;94914.00;4989312;28;20590;-63
2022/01/01 08:32:51;;;;;;;3.93;2.70;;;;;;;11.15;100.00;94918.16;4989554;28;20537;-63
2022/01/01 08:35:17;;;;;;;4.13;2.67;;;;;;;11.10;100.00;94907.56;4989350;28;20183;-61
2022/01/01 08:37:42;;;;;;;3.60;2.77;;;;;;;11.20;100.00;94923.69;4990026;28;20271;-66
2022/01/01 08:40:09;;;;;;;5.40;2.90;;;;;;;11.47;100.00;94933.31;4988246;28;20598;-62
2022/01/01 08:42:35;;;;;;;4.50;3.13;;;;;;;11.89;100.00;94946.75;4989949;28;20648;-62
2022/01/01 08:45:00;;;;;;;5.20;3.17;;;;;;;11.88;100.00;94957.88;4989541;28;20250;-61
2022/01/01 08:47:26;;;;;;;4.00;2.90;;;;;;;12.16;100.00;94959.69;4989542;28;20571;-61
2022/01/01 08:49:54;;;;;;;3.93;2.60;;;;;;;12.70;100.00;94837.53;4989469;28;20237;-60
2022/01/01 08:52:21;;;;;;;3.13;2.57;;;;;;;13.40;100.00;94998.72;4994707;23;20258;-62
2022/01/01 08:54:47;;;;;;;3.73;2.30;;;;;;;13.67;97.06;95053.38;4988666;28;20184;-64
2022/01/01 08:57:14;;;;;;;2.70;1.87;;;;;;;13.62;95.54;95046.13;4989583;28;20267;-62
2022/01/01 08:59:40;;;;;;;2.53;2.20;;;;;;;13.19;96.98;94992.97;4989481;28;20296;-61
2022/01/01 09:02:05;;;;;;;3.47;2.30;;;;;;;13.60;97.15;94993.53;4989458;28;20291;-61
2022/01/01 09:04:31;;;;;;;2.70;2.00;;;;;;;13.62;95.42;95017.19;4989551;28;20317;-60
2022/01/01 09:06:56;;;;;;;2.23;1.53;;;;;;;13.42;96.01;95003.69;4988981;28;20219;-63
2022/01/01 09:09:22;;;;;;;2.87;2.00;;;;;;;13.20;97.62;94984.38;4989097;28;20237;-60
2022/01/01 09:11:47;;;;;;;4.53;1.70;;;;;;;12.96;98.54;94966.13;4971649;28;20227;-62
2022/01/01 09:14:14;;;;;;;2.13;1.90;;;;;;;12.77;99.67;94930.41;4989232;28;20183;-62
2022/01/01 09:16:39;;;;;;;2.50;2.10;;;;;;;12.68;99.32;94948.28;4989228;28;20625;-62
2022/01/01 09:19:05;;;;;;;2.23;2.03;;;;;;;12.79;99.58;94943.03;4987307;28;20176;-64
2022/01/01 09:21:31;;;;;;;4.30;2.30;;;;;;;12.90;98.11;94968.41;4989097;28;20243;-63
2022/01/01 09:23:57;;;;;;;4.53;2.37;;;;;;;13.21;96.68;94992.84;4988989;28;20630;-63
2022/01/01 09:26:23;;;;;;;2.03;1.83;;;;;;;13.13;97.45;94969.75;4989148;28;20247;-61
2022/01/01 09:28:49;;;;;;;4.47;2.50;;;;;;;13.28;95.67;95015.16;4971692;28;20176;-61
2022/01/01 09:31:15;;;;;;;2.97;2.40;;;;;;;13.14;95.58;95002.00;4988936;28;20208;-63
2022/01/01 09:33:41;;;;;;;2.43;1.93;;;;;;;13.43;94.86;95018.84;4989074;28;20178;-62
2022/01/01 09:36:07;;;;;;;3.57;2.50;;;;;;;13.77;93.07;95049.84;4988972;28;20208;-62
2022/01/01 09:38:34;;;;;;;3.40;2.27;;;;;;;13.81;92.67;95055.47;4989150;28;20188;-61
2022/01/01 09:41:00;;;;;;;3.03;1.97;;;;;;;13.47;92.26;95067.94;4988668;28;20223;-62
2022/01/01 09:43:28;;;;;;;2.50;1.90;;;;;;;13.26;93.56;95039.19;4988709;28;20563;-62
2022/01/01 09:45:56;;;;;;;4.80;2.07;;;;;;;13.23;94.62;95019.84;4987340;28;20719;-64
2022/01/01 09:48:23;;;;;;;3.27;1.93;;;;;;;12.94;95.08;95001.19;4989227;28;20178;-62
2022/01/01 09:50:52;;;;;;;1.90;1.80;;;;;;;12.91;95.16;95006.53;4988341;28;20222;-61
2022/01/01 09:53:18;;;;;;;3.40;2.60;;;;;;;12.85;95.67;94996.06;4988956;28;20168;-61
2022/01/01 09:55:44;;;;;;;1.90;1.70;;;;;;;12.93;95.51;94999.56;4988516;28;20223;-63
2022/01/01 09:58:10;;;;;;;6.27;3.13;;;;;;;12.91;96.24;94993.00;4988409;28;20297;-62
2022/01/01 10:00:35;;;;;;;2.80;2.37;;;;;;;12.87;96.05;95001.84;4988363;28;20219;-62
2022/01/01 10:03:01;;;;;;;3.83;2.77;;;;;;;12.68;96.96;94995.03;4988655;28;20308;-60
2022/01/01 10:05:26;;;;;;;6.13;2.93;;;;;;;12.57;97.89;94961.97;4988572;28;20660;-61
2022/01/01 10:07:52;;;;;;;3.77;2.93;;;;;;;12.57;97.88;94979.84;4991948;28;20249;-62
2022/01/01 10:10:22;;;;;;;5.07;2.80;;;;;;;12.42;97.94;94981.19;4992102;28;20671;-62
2022/01/01 10:12:49;;;;;;;3.57;2.27;;;;;;;12.41;98.13;94974.44;4992177;28;20563;-63
2022/01/01 10:15:15;;;;;;;3.70;2.43;;;;;;;12.41;98.78;94969.34;4991666;28;20211;-61
2022/01/01 10:17:41;;;;;;;6.67;2.67;;;;;;;12.38;98.57;94964.53;4990601;28;20199;-62
2022/01/01 10:20:08;;;;;;;3.83;2.70;;;;;;;12.43;99.11;94962.38;4991722;28;20235;-62
2022/01/01 10:22:35;;;;;;;3.57;2.73;;;;;;;12.41;99.47;94964.25;4992027;28;20628;-65
2022/01/01 10:28:03;;;;;;;3.03;2.67;;;;;;;12.36;99.49;94966.41;4991413;28;20285;-64
2022/01/01 10:30:28;;;;;;;4.13;2.90;;;;;;;12.87;97.69;94983.97;4990013;28;20645;-62
2022/01/01 10:33:06;;;;;;;8.90;4.10;;;;;;;13.16;95.20;95034.09;4990053;28;20332;-61
2022/01/01 10:35:53;;;;;;;4.77;2.50;;;;;;;12.76;95.44;94992.59;4990004;28;20179;-62
2022/01/01 10:38:19;;;;;;;5.07;3.40;;;;;;;12.62;96.16;94998.09;4991468;28;20192;-60
2022/01/01 10:40:46;;;;;;;3.33;2.43;;;;;;;12.45;96.46;94974.06;4991270;28;20528;-62
2022/01/01 10:43:16;;;;;;;3.80;3.03;;;;;;;12.60;96.33;94972.72;4989971;28;20183;-60
2022/01/01 10:45:47;;;;;;;3.80;2.60;;;;;;;13.06;94.01;95018.00;4989835;28;20288;-61
2022/01/01 10:48:41;;;;;;;3.67;2.67;;;;;;;13.35;91.45;95053.72;4991207;28;20201;-61
2022/01/01 10:51:08;;;;;;;7.20;3.37;;;;;;;13.55;90.70;95054.47;4989966;28;20219;-64
2022/01/01 10:53:35;;;;;;;5.07;2.93;;;;;;;13.83;88.83;95086.81;4991065;28;20168;-62
2022/01/01 10:56:03;;;;;;;4.87;3.30;;;;;;;14.07;87.76;95103.28;4991153;28;20251;-62
2022/01/01 10:58:32;;;;;;;4.50;2.53;;;;;;;14.08;87.18;95070.84;4991109;28;20180;-64
2022/01/01 11:01:07;;;;;;;3.50;3.00;;;;;;;13.80;88.50;95057.22;4991308;28;20247;-60
2022/01/01 11:03:43;;;;;;;5.20;2.90;;;;;;;13.88;88.08;95056.50;4991166;28;20257;-63
2022/01/01 11:06:17;;;;;;;4.23;2.73;;;;;;;13.85;86.99;95067.03;4991241;28;20336;-65
2022/01/01 11:08:45;;;;;;;3.77;2.50;;;;;;;13.74;87.90;95055.22;4991124;28;20172;-61
2022/01/01 11:11:13;;;;;;;5.17;3.30;;;;;;;13.63;88.31;95039.25;4990869;28;20676;-65
2022/01/01 11:13:40;;;;;;;3.67;2.70;;;;;;;13.87;88.42;95045.50;4990787;28;20244;-64
2022/01/01 11:16:07;;;;;;;3.47;2.90;;;;;;;13.75;88.32;95043.25;4990781;28;20306;-62
2022/01/01 11:18:33;;;;;;;5.13;3.00;;;;;;;14.02;87.49;95048.38;4989995;28;20191;-63
2022/01/01 11:21:01;;;;;;;5.90;3.30;;;;;;;14.34;86.62;95059.06;4990565;28;20631;-61
2022/01/01 11:23:27;;;;;;;4.57;3.10;;;;;;;14.41;85.70;95084.84;4990667;28;20562;-60
2022/01/01 11:25:54;;;;;;;4.20;2.33;;;;;;;14.10;83.42;95110.66;4990661;28;20339;-63